sensor_id;sensor_type;location;lat;lon;timestamp;temperature;humidity
33931;DHT22;20215;53.130;6.408;2022-08-06T00:02:19;25.80;54.10
33931;DHT22;20215;53.130;6.408;2022-08-06T00:04:46;25.80;54.10
33931;DHT22;20215;53.130;6.408;2022-08-06T00:07:12;25.80;54.20
33931;DHT22;20215;53.130;6.408;2022-08-06T00:09:38;25.80;54.20
33931;DHT22;20215;53.130;6.408;2022-08-06T00:12:04;25.80;54.20
33931;DHT22;20215;53.130;6.408;2022-08-06T00:14:31;25.80;54.20
33931;DHT22;20215;53.130;6.408;2022-08-06T00:16:57;25.70;54.20
33931;DHT22;20215;53.130;6.408;2022-08-06T00:19:24;25.70;54.20
33931;DHT22;20215;53.130;6.408;2022-08-06T00:21:50;25.70;54.30
33931;DHT22;20215;53.130;6.408;2022-08-06T00:24:16;25.70;54.30
33931;DHT22;20215;53.130;6.408;2022-08-06T00:26:42;25.70;54.30
33931;DHT22;20215;53.130;6.408;2022-08-06T00:29:07;25.70;54.30
33931;DHT22;20215;53.130;6.408;2022-08-06T00:31:33;25.70;54.40
33931;DHT22;20215;53.130;6.408;2022-08-06T00:33:59;25.70;54.30
33931;DHT22;20215;53.130;6.408;2022-08-06T00:36:29;25.70;54.40
33931;DHT22;20215;53.130;6.408;2022-08-06T00:38:56;25.70;54.40
33931;DHT22;20215;53.130;6.408;2022-08-06T00:41:22;25.60;54.40
33931;DHT22;20215;53.130;6.408;2022-08-06T00:43:48;25.60;54.50
33931;DHT22;20215;53.130;6.408;2022-08-06T00:46:14;25.60;54.40
33931;DHT22;20215;53.130;6.408;2022-08-06T00:48:40;25.60;54.50
33931;DHT22;20215;53.130;6.408;2022-08-06T00:51:05;25.60;54.50
33931;DHT22;20215;53.130;6.408;2022-08-06T00:53:31;25.60;54.60
33931;DHT22;20215;53.130;6.408;2022-08-06T00:55:57;25.60;54.60
33931;DHT22;20215;53.130;6.408;2022-08-06T00:58:22;25.60;54.60
33931;DHT22;20215;53.130;6.408;2022-08-06T01:00:48;25.60;54.60
33931;DHT22;20215;53.130;6.408;2022-08-06T01:03:13;25.60;54.70
33931;DHT22;20215;53.130;6.408;2022-08-06T01:05:42;25.60;54.70
33931;DHT22;20215;53.130;6.408;2022-08-06T01:08:09;25.60;54.70
33931;DHT22;20215;53.130;6.408;2022-08-06T01:10:35;25.60;54.80
33931;DHT22;20215;53.130;6.408;2022-08-06T01:13:00;25.50;54.70
33931;DHT22;20215;53.130;6.408;2022-08-06T01:15:26;25.50;54.80
33931;DHT22;20215;53.130;6.408;2022-08-06T01:18:10;25.50;54.80
33931;DHT22;20215;53.130;6.408;2022-08-06T01:26:28;25.50;54.80
33931;DHT22;20215;53.130;6.408;2022-08-06T01:29:29;25.50;54.90
33931;DHT22;20215;53.130;6.408;2022-08-06T01:32:04;25.40;54.90
33931;DHT22;20215;53.130;6.408;2022-08-06T01:34:40;25.40;55.10
33931;DHT22;20215;53.130;6.408;2022-08-06T01:40:04;25.40;55.10
33931;DHT22;20215;53.130;6.408;2022-08-06T01:42:32;25.30;55.10
33931;DHT22;20215;53.130;6.408;2022-08-06T01:44:59;25.30;55.00
33931;DHT22;20215;53.130;6.408;2022-08-06T01:47:30;25.30;55.10
33931;DHT22;20215;53.130;6.408;2022-08-06T01:49:59;25.30;55.10
33931;DHT22;20215;53.130;6.408;2022-08-06T01:52:27;25.30;55.10
33931;DHT22;20215;53.130;6.408;2022-08-06T01:54:54;25.30;55.10
33931;DHT22;20215;53.130;6.408;2022-08-06T01:57:24;25.30;55.10
33931;DHT22;20215;53.130;6.408;2022-08-06T01:59:53;25.30;55.10
33931;DHT22;20215;53.130;6.408;2022-08-06T02:02:23;25.30;55.10
33931;DHT22;20215;53.130;6.408;2022-08-06T02:04:55;25.30;55.20
33931;DHT22;20215;53.130;6.408;2022-08-06T02:07:25;25.30;55.20
33931;DHT22;20215;53.130;6.408;2022-08-06T02:09:52;25.30;55.20
33931;DHT22;20215;53.130;6.408;2022-08-06T02:12:21;25.30;55.70
33931;DHT22;20215;53.130;6.408;2022-08-06T02:14:53;25.30;55.20
33931;DHT22;20215;53.130;6.408;2022-08-06T02:17:25;25.30;55.20
33931;DHT22;20215;53.130;6.408;2022-08-06T02:19:53;25.30;55.20
33931;DHT22;20215;53.130;6.408;2022-08-06T02:22:21;25.20;55.20
33931;DHT22;20215;53.130;6.408;2022-08-06T02:24:48;25.20;55.70
33931;DHT22;20215;53.130;6.408;2022-08-06T02:27:16;25.20;55.20
33931;DHT22;20215;53.130;6.408;2022-08-06T02:29:44;25.20;55.20
33931;DHT22;20215;53.130;6.408;2022-08-06T02:32:11;25.20;55.20
33931;DHT22;20215;53.130;6.408;2022-08-06T02:34:38;25.20;55.20
33931;DHT22;20215;53.130;6.408;2022-08-06T02:37:13;25.20;55.20
33931;DHT22;20215;53.130;6.408;2022-08-06T02:39:51;25.20;55.20
33931;DHT22;20215;53.130;6.408;2022-08-06T02:42:35;25.20;55.30
33931;DHT22;20215;53.130;6.408;2022-08-06T02:45:15;25.10;55.30
33931;DHT22;20215;53.130;6.408;2022-08-06T02:50:40;25.10;55.30
33931;DHT22;20215;53.130;6.408;2022-08-06T02:53:10;25.10;55.30
33931;DHT22;20215;53.130;6.408;2022-08-06T02:55:39;25.10;55.40
33931;DHT22;20215;53.130;6.408;2022-08-06T02:58:12;25.10;55.40
33931;DHT22;20215;53.130;6.408;2022-08-06T03:00:41;25.10;55.30
33931;DHT22;20215;53.130;6.408;2022-08-06T03:03:08;25.10;55.40
33931;DHT22;20215;53.130;6.408;2022-08-06T03:05:35;25.10;55.30
33931;DHT22;20215;53.130;6.408;2022-08-06T03:08:03;25.00;55.30
33931;DHT22;20215;53.130;6.408;2022-08-06T03:10:31;25.00;55.30
33931;DHT22;20215;53.130;6.408;2022-08-06T03:12:59;25.00;55.30
33931;DHT22;20215;53.130;6.408;2022-08-06T03:15:26;25.00;55.30
33931;DHT22;20215;53.130;6.408;2022-08-06T03:17:54;25.00;55.30
33931;DHT22;20215;53.130;6.408;2022-08-06T03:20:26;25.00;55.30
33931;DHT22;20215;53.130;6.408;2022-08-06T03:22:53;25.00;55.30
33931;DHT22;20215;53.130;6.408;2022-08-06T03:25:21;25.00;55.40
33931;DHT22;20215;53.130;6.408;2022-08-06T03:27:47;25.00;55.40
33931;DHT22;20215;53.130;6.408;2022-08-06T03:30:15;25.00;55.40
33931;DHT22;20215;53.130;6.408;2022-08-06T03:32:42;25.00;55.40
33931;DHT22;20215;53.130;6.408;2022-08-06T03:35:08;25.00;55.40
33931;DHT22;20215;53.130;6.408;2022-08-06T03:37:35;25.00;55.40
33931;DHT22;20215;53.130;6.408;2022-08-06T03:40:02;25.00;55.40
33931;DHT22;20215;53.130;6.408;2022-08-06T03:42:28;25.00;55.40
33931;DHT22;20215;53.130;6.408;2022-08-06T03:44:54;25.00;55.40
33931;DHT22;20215;53.130;6.408;2022-08-06T03:47:22;25.00;55.50
33931;DHT22;20215;53.130;6.408;2022-08-06T03:50:00;25.00;55.50
33931;DHT22;20215;53.130;6.408;2022-08-06T03:52:29;24.90;55.50
33931;DHT22;20215;53.130;6.408;2022-08-06T03:55:01;24.90;55.50
33931;DHT22;20215;53.130;6.408;2022-08-06T03:57:30;24.90;55.50
33931;DHT22;20215;53.130;6.408;2022-08-06T03:59:58;24.90;55.50
33931;DHT22;20215;53.130;6.408;2022-08-06T04:02:40;24.80;55.70
33931;DHT22;20215;53.130;6.408;2022-08-06T04:05:07;24.80;55.70
33931;DHT22;20215;53.130;6.408;2022-08-06T04:07:35;24.80;55.70
33931;DHT22;20215;53.130;6.408;2022-08-06T04:10:01;24.80;55.70
33931;DHT22;20215;53.130;6.408;2022-08-06T04:12:28;24.80;55.60
33931;DHT22;20215;53.130;6.408;2022-08-06T04:14:55;24.80;55.50
33931;DHT22;20215;53.130;6.408;2022-08-06T04:17:21;24.80;55.50
33931;DHT22;20215;53.130;6.408;2022-08-06T04:19:48;24.80;55.50
33931;DHT22;20215;53.130;6.408;2022-08-06T04:22:15;24.80;55.50
33931;DHT22;20215;53.130;6.408;2022-08-06T04:24:41;24.80;55.50
33931;DHT22;20215;53.130;6.408;2022-08-06T04:27:07;24.80;55.50
33931;DHT22;20215;53.130;6.408;2022-08-06T04:29:36;24.80;55.50
33931;DHT22;20215;53.130;6.408;2022-08-06T04:32:03;24.80;56.00
33931;DHT22;20215;53.130;6.408;2022-08-06T04:34:29;24.80;55.40
33931;DHT22;20215;53.130;6.408;2022-08-06T04:36:58;24.80;55.50
33931;DHT22;20215;53.130;6.408;2022-08-06T04:39:24;24.80;55.40
33931;DHT22;20215;53.130;6.408;2022-08-06T04:41:51;24.80;55.50
33931;DHT22;20215;53.130;6.408;2022-08-06T04:44:17;24.80;55.20
33931;DHT22;20215;53.130;6.408;2022-08-06T04:46:43;24.80;49.40
33931;DHT22;20215;53.130;6.408;2022-08-06T04:49:14;24.70;47.40
33931;DHT22;20215;53.130;6.408;2022-08-06T04:51:44;24.50;46.70
33931;DHT22;20215;53.130;6.408;2022-08-06T04:54:09;24.40;46.00
33931;DHT22;20215;53.130;6.408;2022-08-06T04:56:35;24.20;46.30
33931;DHT22;20215;53.130;6.408;2022-08-06T04:59:01;24.10;46.20
33931;DHT22;20215;53.130;6.408;2022-08-06T05:01:26;24.00;46.50
33931;DHT22;20215;53.130;6.408;2022-08-06T05:03:52;23.80;46.40
33931;DHT22;20215;53.130;6.408;2022-08-06T05:08:53;23.60;46.50
33931;DHT22;20215;53.130;6.408;2022-08-06T05:11:33;23.50;46.80
33931;DHT22;20215;53.130;6.408;2022-08-06T05:14:16;23.30;47.00
33931;DHT22;20215;53.130;6.408;2022-08-06T05:16:46;23.20;47.50
33931;DHT22;20215;53.130;6.408;2022-08-06T05:19:20;23.10;47.70
33931;DHT22;20215;53.130;6.408;2022-08-06T05:21:47;23.10;48.00
33931;DHT22;20215;53.130;6.408;2022-08-06T05:24:14;23.00;48.10
33931;DHT22;20215;53.130;6.408;2022-08-06T05:26:40;23.00;48.30
33931;DHT22;20215;53.130;6.408;2022-08-06T05:29:06;22.90;48.40
33931;DHT22;20215;53.130;6.408;2022-08-06T05:31:36;22.80;48.60
33931;DHT22;20215;53.130;6.408;2022-08-06T05:34:08;22.90;48.80
33931;DHT22;20215;53.130;6.408;2022-08-06T05:36:34;22.80;48.90
33931;DHT22;20215;53.130;6.408;2022-08-06T05:39:00;22.80;49.10
33931;DHT22;20215;53.130;6.408;2022-08-06T05:41:26;22.70;49.20
33931;DHT22;20215;53.130;6.408;2022-08-06T05:43:52;22.70;49.40
33931;DHT22;20215;53.130;6.408;2022-08-06T05:46:21;22.70;49.50
33931;DHT22;20215;53.130;6.408;2022-08-06T05:49:06;22.50;49.50
33931;DHT22;20215;53.130;6.408;2022-08-06T05:51:40;22.40;50.20
33931;DHT22;20215;53.130;6.408;2022-08-06T05:54:21;22.20;50.70
33931;DHT22;20215;53.130;6.408;2022-08-06T05:56:49;22.20;51.20
33931;DHT22;20215;53.130;6.408;2022-08-06T05:59:23;22.30;51.40
33931;DHT22;20215;53.130;6.408;2022-08-06T06:01:49;22.40;51.40
33931;DHT22;20215;53.130;6.408;2022-08-06T06:04:16;22.50;51.40
33931;DHT22;20215;53.130;6.408;2022-08-06T06:06:43;22.50;51.50
33931;DHT22;20215;53.130;6.408;2022-08-06T06:09:09;22.60;51.70
33931;DHT22;20215;53.130;6.408;2022-08-06T06:11:36;22.60;51.80
33931;DHT22;20215;53.130;6.408;2022-08-06T06:14:02;22.70;52.00
33931;DHT22;20215;53.130;6.408;2022-08-06T06:19:49;22.80;52.30
33931;DHT22;20215;53.130;6.408;2022-08-06T06:22:33;22.80;52.30
33931;DHT22;20215;53.130;6.408;2022-08-06T06:25:18;22.80;52.70
33931;DHT22;20215;53.130;6.408;2022-08-06T06:28:22;22.90;52.90
33931;DHT22;20215;53.130;6.408;2022-08-06T06:30:53;22.90;52.80
33931;DHT22;20215;53.130;6.408;2022-08-06T06:46:16;23.10;53.10
33931;DHT22;20215;53.130;6.408;2022-08-06T06:48:53;23.10;53.20
33931;DHT22;20215;53.130;6.408;2022-08-06T06:51:40;23.10;53.60
33931;DHT22;20215;53.130;6.408;2022-08-06T06:54:09;23.10;53.50
33931;DHT22;20215;53.130;6.408;2022-08-06T06:56:41;23.10;53.70
33931;DHT22;20215;53.130;6.408;2022-08-06T06:59:18;23.20;53.50
33931;DHT22;20215;53.130;6.408;2022-08-06T07:01:47;23.20;53.30
33931;DHT22;20215;53.130;6.408;2022-08-06T07:04:15;23.20;53.10
33931;DHT22;20215;53.130;6.408;2022-08-06T07:06:42;23.30;53.10
33931;DHT22;20215;53.130;6.408;2022-08-06T07:09:17;23.30;52.90
33931;DHT22;20215;53.130;6.408;2022-08-06T07:11:44;23.40;53.00
33931;DHT22;20215;53.130;6.408;2022-08-06T07:14:13;23.40;53.00
33931;DHT22;20215;53.130;6.408;2022-08-06T07:16:40;23.40;53.00
33931;DHT22;20215;53.130;6.408;2022-08-06T07:19:07;23.50;53.00
33931;DHT22;20215;53.130;6.408;2022-08-06T07:21:34;23.50;52.90
33931;DHT22;20215;53.130;6.408;2022-08-06T07:24:00;23.50;52.90
33931;DHT22;20215;53.130;6.408;2022-08-06T07:26:27;23.60;53.00
33931;DHT22;20215;53.130;6.408;2022-08-06T07:28:54;23.60;52.80
33931;DHT22;20215;53.130;6.408;2022-08-06T07:31:23;23.70;52.70
33931;DHT22;20215;53.130;6.408;2022-08-06T07:33:52;23.70;52.30
33931;DHT22;20215;53.130;6.408;2022-08-06T07:36:22;23.80;52.50
33931;DHT22;20215;53.130;6.408;2022-08-06T07:38:49;23.80;52.40
33931;DHT22;20215;53.130;6.408;2022-08-06T07:41:16;23.90;52.10
33931;DHT22;20215;53.130;6.408;2022-08-06T07:43:46;24.00;51.80
33931;DHT22;20215;53.130;6.408;2022-08-06T07:46:15;24.00;51.30
33931;DHT22;20215;53.130;6.408;2022-08-06T07:48:46;24.10;51.20
33931;DHT22;20215;53.130;6.408;2022-08-06T07:51:13;24.10;51.00
33931;DHT22;20215;53.130;6.408;2022-08-06T07:53:40;24.00;51.10
33931;DHT22;20215;53.130;6.408;2022-08-06T07:56:08;24.00;50.70
33931;DHT22;20215;53.130;6.408;2022-08-06T07:58:35;24.00;50.40
33931;DHT22;20215;53.130;6.408;2022-08-06T08:01:02;24.00;50.40
33931;DHT22;20215;53.130;6.408;2022-08-06T08:03:28;24.00;50.10
33931;DHT22;20215;53.130;6.408;2022-08-06T08:06:15;24.00;49.90
33931;DHT22;20215;53.130;6.408;2022-08-06T08:08:54;23.90;49.60
33931;DHT22;20215;53.130;6.408;2022-08-06T08:11:21;23.90;49.50
33931;DHT22;20215;53.130;6.408;2022-08-06T08:13:50;23.90;49.60
33931;DHT22;20215;53.130;6.408;2022-08-06T08:16:18;23.90;49.50
33931;DHT22;20215;53.130;6.408;2022-08-06T08:18:44;23.90;49.50
33931;DHT22;20215;53.130;6.408;2022-08-06T08:21:11;23.90;49.80
33931;DHT22;20215;53.130;6.408;2022-08-06T08:23:38;24.00;50.00
33931;DHT22;20215;53.130;6.408;2022-08-06T08:26:04;24.00;50.10
33931;DHT22;20215;53.130;6.408;2022-08-06T08:28:30;24.20;50.10
33931;DHT22;20215;53.130;6.408;2022-08-06T08:30:57;24.30;50.00
33931;DHT22;20215;53.130;6.408;2022-08-06T08:33:31;24.40;49.40
33931;DHT22;20215;53.130;6.408;2022-08-06T08:35:57;24.40;49.00
33931;DHT22;20215;53.130;6.408;2022-08-06T08:38:23;24.50;49.80
33931;DHT22;20215;53.130;6.408;2022-08-06T08:40:50;24.50;49.20
33931;DHT22;20215;53.130;6.408;2022-08-06T08:43:22;24.50;49.00
33931;DHT22;20215;53.130;6.408;2022-08-06T08:45:49;24.50;49.20
33931;DHT22;20215;53.130;6.408;2022-08-06T08:48:22;24.60;48.40
33931;DHT22;20215;53.130;6.408;2022-08-06T08:50:49;24.50;47.90
33931;DHT22;20215;53.130;6.408;2022-08-06T08:53:22;24.50;48.30
33931;DHT22;20215;53.130;6.408;2022-08-06T08:55:50;24.50;48.10
33931;DHT22;20215;53.130;6.408;2022-08-06T08:58:16;24.50;48.00
33931;DHT22;20215;53.130;6.408;2022-08-06T09:00:42;24.50;48.10
33931;DHT22;20215;53.130;6.408;2022-08-06T09:03:08;24.50;48.00
33931;DHT22;20215;53.130;6.408;2022-08-06T09:05:34;24.60;47.90
33931;DHT22;20215;53.130;6.408;2022-08-06T09:08:02;24.60;47.90
33931;DHT22;20215;53.130;6.408;2022-08-06T09:10:29;24.60;48.10
33931;DHT22;20215;53.130;6.408;2022-08-06T09:12:55;24.60;48.80
33931;DHT22;20215;53.130;6.408;2022-08-06T09:15:20;24.60;49.20
33931;DHT22;20215;53.130;6.408;2022-08-06T09:17:47;24.50;49.30
33931;DHT22;20215;53.130;6.408;2022-08-06T09:20:13;24.50;49.30
33931;DHT22;20215;53.130;6.408;2022-08-06T09:22:39;24.50;49.50
33931;DHT22;20215;53.130;6.408;2022-08-06T09:25:05;24.40;49.40
33931;DHT22;20215;53.130;6.408;2022-08-06T09:27:37;24.40;49.70
33931;DHT22;20215;53.130;6.408;2022-08-06T09:30:05;24.40;50.10
33931;DHT22;20215;53.130;6.408;2022-08-06T09:32:47;24.40;50.10
33931;DHT22;20215;53.130;6.408;2022-08-06T09:35:18;24.40;49.90
33931;DHT22;20215;53.130;6.408;2022-08-06T09:37:44;24.50;49.90
33931;DHT22;20215;53.130;6.408;2022-08-06T09:40:18;24.50;50.00
33931;DHT22;20215;53.130;6.408;2022-08-06T09:42:46;24.50;49.60
33931;DHT22;20215;53.130;6.408;2022-08-06T09:45:15;24.50;49.80
33931;DHT22;20215;53.130;6.408;2022-08-06T09:47:42;24.50;50.60
33931;DHT22;20215;53.130;6.408;2022-08-06T09:50:08;24.40;50.10
33931;DHT22;20215;53.130;6.408;2022-08-06T09:52:34;24.50;50.20
33931;DHT22;20215;53.130;6.408;2022-08-06T09:55:00;24.60;50.20
33931;DHT22;20215;53.130;6.408;2022-08-06T09:57:40;24.60;50.10
33931;DHT22;20215;53.130;6.408;2022-08-06T10:00:07;24.80;50.00
33931;DHT22;20215;53.130;6.408;2022-08-06T10:02:34;24.80;49.90
33931;DHT22;20215;53.130;6.408;2022-08-06T10:05:08;25.00;49.70
33931;DHT22;20215;53.130;6.408;2022-08-06T10:07:33;25.10;49.50
33931;DHT22;20215;53.130;6.408;2022-08-06T10:09:59;25.20;49.30
33931;DHT22;20215;53.130;6.408;2022-08-06T10:12:25;25.30;49.10
33931;DHT22;20215;53.130;6.408;2022-08-06T10:14:51;25.40;48.90
33931;DHT22;20215;53.130;6.408;2022-08-06T10:17:18;25.60;48.80
33931;DHT22;20215;53.130;6.408;2022-08-06T10:22:30;25.80;48.40
33931;DHT22;20215;53.130;6.408;2022-08-06T10:25:00;26.00;48.30
33931;DHT22;20215;53.130;6.408;2022-08-06T10:27:30;26.10;47.90
33931;DHT22;20215;53.130;6.408;2022-08-06T10:30:02;26.20;47.80
33931;DHT22;20215;53.130;6.408;2022-08-06T10:35:16;26.40;47.40
33931;DHT22;20215;53.130;6.408;2022-08-06T10:37:44;26.50;47.30
33931;DHT22;20215;53.130;6.408;2022-08-06T10:40:13;26.50;47.50
33931;DHT22;20215;53.130;6.408;2022-08-06T10:42:40;26.60;47.50
33931;DHT22;20215;53.130;6.408;2022-08-06T10:45:08;26.60;47.50
33931;DHT22;20215;53.130;6.408;2022-08-06T10:47:34;26.60;47.50
33931;DHT22;20215;53.130;6.408;2022-08-06T10:50:02;26.60;47.50
33931;DHT22;20215;53.130;6.408;2022-08-06T10:52:28;26.70;47.50
33931;DHT22;20215;53.130;6.408;2022-08-06T10:54:55;26.70;47.20
33931;DHT22;20215;53.130;6.408;2022-08-06T10:57:22;26.90;47.00
33931;DHT22;20215;53.130;6.408;2022-08-06T10:59:48;27.10;46.70
33931;DHT22;20215;53.130;6.408;2022-08-06T11:05:00;27.20;46.20
33931;DHT22;20215;53.130;6.408;2022-08-06T11:13:40;26.90;46.70
33931;DHT22;20215;53.130;6.408;2022-08-06T11:16:26;26.80;46.90
33931;DHT22;20215;53.130;6.408;2022-08-06T11:19:25;26.80;47.10
33931;DHT22;20215;53.130;6.408;2022-08-06T11:22:02;26.80;47.10
33931;DHT22;20215;53.130;6.408;2022-08-06T11:24:29;26.80;47.10
33931;DHT22;20215;53.130;6.408;2022-08-06T11:26:55;27.10;46.90
33931;DHT22;20215;53.130;6.408;2022-08-06T11:29:20;27.40;46.30
33931;DHT22;20215;53.130;6.408;2022-08-06T11:31:48;27.80;45.50
33931;DHT22;20215;53.130;6.408;2022-08-06T11:34:17;28.10;44.70
33931;DHT22;20215;53.130;6.408;2022-08-06T11:36:54;28.40;44.00
33931;DHT22;20215;53.130;6.408;2022-08-06T11:39:23;28.50;43.30
33931;DHT22;20215;53.130;6.408;2022-08-06T11:41:59;28.50;43.50
33931;DHT22;20215;53.130;6.408;2022-08-06T11:44:33;28.40;43.60
33931;DHT22;20215;53.130;6.408;2022-08-06T11:47:09;28.40;43.80
33931;DHT22;20215;53.130;6.408;2022-08-06T11:49:37;28.40;43.90
33931;DHT22;20215;53.130;6.408;2022-08-06T11:52:03;28.50;43.50
33931;DHT22;20215;53.130;6.408;2022-08-06T11:54:31;29.50;42.60
33931;DHT22;20215;53.130;6.408;2022-08-06T12:02:11;32.40;38.00
33931;DHT22;20215;53.130;6.408;2022-08-06T12:07:26;33.50;36.10
33931;DHT22;20215;53.130;6.408;2022-08-06T12:15:00;33.00;37.50
33931;DHT22;20215;53.130;6.408;2022-08-06T12:17:28;32.80;37.00
33931;DHT22;20215;53.130;6.408;2022-08-06T12:19:56;32.60;36.80
33931;DHT22;20215;53.130;6.408;2022-08-06T12:22:23;33.10;36.80
33931;DHT22;20215;53.130;6.408;2022-08-06T12:24:52;33.50;36.10
33931;DHT22;20215;53.130;6.408;2022-08-06T12:27:20;34.00;35.80
33931;DHT22;20215;53.130;6.408;2022-08-06T12:29:46;34.30;35.30
33931;DHT22;20215;53.130;6.408;2022-08-06T12:32:29;34.10;34.90
33931;DHT22;20215;53.130;6.408;2022-08-06T12:34:58;34.70;35.40
33931;DHT22;20215;53.130;6.408;2022-08-06T12:37:42;34.90;34.40
33931;DHT22;20215;53.130;6.408;2022-08-06T12:40:13;35.50;34.40
33931;DHT22;20215;53.130;6.408;2022-08-06T12:42:53;36.40;33.40
33931;DHT22;20215;53.130;6.408;2022-08-06T12:45:27;36.90;32.60
33931;DHT22;20215;53.130;6.408;2022-08-06T12:50:23;38.00;31.60
33931;DHT22;20215;53.130;6.408;2022-08-06T12:53:10;37.10;31.40
33931;DHT22;20215;53.130;6.408;2022-08-06T12:55:51;35.10;33.00
33931;DHT22;20215;53.130;6.408;2022-08-06T13:00:54;35.60;34.50
33931;DHT22;20215;53.130;6.408;2022-08-06T13:03:21;36.80;33.00
33931;DHT22;20215;53.130;6.408;2022-08-06T13:05:48;37.70;31.90
33931;DHT22;20215;53.130;6.408;2022-08-06T13:08:14;38.50;31.10
33931;DHT22;20215;53.130;6.408;2022-08-06T13:10:50;39.10;30.80
33931;DHT22;20215;53.130;6.408;2022-08-06T13:13:17;39.50;30.30
33931;DHT22;20215;53.130;6.408;2022-08-06T13:16:03;38.30;30.50
33931;DHT22;20215;53.130;6.408;2022-08-06T13:18:37;37.00;31.70
33931;DHT22;20215;53.130;6.408;2022-08-06T13:21:10;37.30;32.00
33931;DHT22;20215;53.130;6.408;2022-08-06T13:23:48;37.80;32.10
33931;DHT22;20215;53.130;6.408;2022-08-06T13:26:17;38.20;31.40
33931;DHT22;20215;53.130;6.408;2022-08-06T13:29:06;38.60;31.00
33931;DHT22;20215;53.130;6.408;2022-08-06T13:31:34;39.10;30.80
33931;DHT22;20215;53.130;6.408;2022-08-06T13:34:07;39.40;29.90
33931;DHT22;20215;53.130;6.408;2022-08-06T13:36:35;39.60;29.20
33931;DHT22;20215;53.130;6.408;2022-08-06T13:42:16;38.90;28.60
33931;DHT22;20215;53.130;6.408;2022-08-06T13:44:44;38.90;28.70
33931;DHT22;20215;53.130;6.408;2022-08-06T13:47:11;39.00;28.60
33931;DHT22;20215;53.130;6.408;2022-08-06T13:49:46;39.00;29.00
33931;DHT22;20215;53.130;6.408;2022-08-06T13:52:12;37.60;28.90
33931;DHT22;20215;53.130;6.408;2022-08-06T13:54:38;35.70;30.20
33931;DHT22;20215;53.130;6.408;2022-08-06T13:57:04;34.00;31.30
33931;DHT22;20215;53.130;6.408;2022-08-06T13:59:30;33.70;33.90
33931;DHT22;20215;53.130;6.408;2022-08-06T14:01:58;32.90;33.90
33931;DHT22;20215;53.130;6.408;2022-08-06T14:04:27;32.00;35.20
33931;DHT22;20215;53.130;6.408;2022-08-06T14:06:55;32.50;35.90
33931;DHT22;20215;53.130;6.408;2022-08-06T14:09:25;33.00;35.20
33931;DHT22;20215;53.130;6.408;2022-08-06T14:11:52;33.40;35.30
33931;DHT22;20215;53.130;6.408;2022-08-06T14:14:19;32.80;34.60
33931;DHT22;20215;53.130;6.408;2022-08-06T14:16:45;31.90;35.30
33931;DHT22;20215;53.130;6.408;2022-08-06T14:19:11;31.20;35.90
33931;DHT22;20215;53.130;6.408;2022-08-06T14:21:36;30.60;36.60
33931;DHT22;20215;53.130;6.408;2022-08-06T14:24:02;30.10;37.10
33931;DHT22;20215;53.130;6.408;2022-08-06T14:26:28;30.20;37.50
33931;DHT22;20215;53.130;6.408;2022-08-06T14:28:54;30.30;37.50
33931;DHT22;20215;53.130;6.408;2022-08-06T14:31:20;30.30;37.50
33931;DHT22;20215;53.130;6.408;2022-08-06T14:33:46;30.20;37.70
33931;DHT22;20215;53.130;6.408;2022-08-06T14:36:12;30.20;37.80
33931;DHT22;20215;53.130;6.408;2022-08-06T14:38:37;30.20;37.60
33931;DHT22;20215;53.130;6.408;2022-08-06T14:41:03;30.10;37.70
33931;DHT22;20215;53.130;6.408;2022-08-06T14:43:47;30.10;37.80
33931;DHT22;20215;53.130;6.408;2022-08-06T14:46:36;30.00;38.00
33931;DHT22;20215;53.130;6.408;2022-08-06T14:49:03;29.80;38.40
33931;DHT22;20215;53.130;6.408;2022-08-06T14:51:29;29.80;39.00
33931;DHT22;20215;53.130;6.408;2022-08-06T14:53:54;29.70;38.90
33931;DHT22;20215;53.130;6.408;2022-08-06T14:56:20;29.80;38.70
33931;DHT22;20215;53.130;6.408;2022-08-06T14:58:45;29.70;38.60
33931;DHT22;20215;53.130;6.408;2022-08-06T15:01:11;29.50;38.70
33931;DHT22;20215;53.130;6.408;2022-08-06T15:03:36;29.30;39.00
33931;DHT22;20215;53.130;6.408;2022-08-06T15:06:02;29.10;39.10
33931;DHT22;20215;53.130;6.408;2022-08-06T15:08:29;28.90;39.20
33931;DHT22;20215;53.130;6.408;2022-08-06T15:10:54;28.70;39.50
33931;DHT22;20215;53.130;6.408;2022-08-06T15:13:20;28.50;39.80
33931;DHT22;20215;53.130;6.408;2022-08-06T15:15:46;28.40;40.10
33931;DHT22;20215;53.130;6.408;2022-08-06T15:18:11;28.30;40.20
33931;DHT22;20215;53.130;6.408;2022-08-06T15:20:37;28.20;40.40
33931;DHT22;20215;53.130;6.408;2022-08-06T15:23:03;28.10;40.50
33931;DHT22;20215;53.130;6.408;2022-08-06T15:25:30;28.10;40.60
33931;DHT22;20215;53.130;6.408;2022-08-06T15:27:55;28.20;40.60
33931;DHT22;20215;53.130;6.408;2022-08-06T15:30:21;28.30;40.40
33931;DHT22;20215;53.130;6.408;2022-08-06T15:32:48;28.40;40.50
33931;DHT22;20215;53.130;6.408;2022-08-06T15:35:13;28.40;40.50
33931;DHT22;20215;53.130;6.408;2022-08-06T15:37:39;28.40;40.60
33931;DHT22;20215;53.130;6.408;2022-08-06T15:40:05;28.40;40.70
33931;DHT22;20215;53.130;6.408;2022-08-06T15:42:31;28.40;40.70
33931;DHT22;20215;53.130;6.408;2022-08-06T15:44:57;28.40;41.10
33931;DHT22;20215;53.130;6.408;2022-08-06T15:47:22;28.40;41.10
33931;DHT22;20215;53.130;6.408;2022-08-06T15:49:48;28.40;40.60
33931;DHT22;20215;53.130;6.408;2022-08-06T15:52:14;28.40;40.60
33931;DHT22;20215;53.130;6.408;2022-08-06T15:54:39;28.40;40.50
33931;DHT22;20215;53.130;6.408;2022-08-06T15:57:05;28.40;40.50
33931;DHT22;20215;53.130;6.408;2022-08-06T15:59:31;28.30;40.60
33931;DHT22;20215;53.130;6.408;2022-08-06T16:01:56;28.20;40.80
33931;DHT22;20215;53.130;6.408;2022-08-06T16:04:22;28.10;41.50
33931;DHT22;20215;53.130;6.408;2022-08-06T16:06:47;28.10;41.00
33931;DHT22;20215;53.130;6.408;2022-08-06T16:09:13;28.10;41.20
33931;DHT22;20215;53.130;6.408;2022-08-06T16:11:41;28.00;41.30
33931;DHT22;20215;53.130;6.408;2022-08-06T16:14:07;27.90;41.40
33931;DHT22;20215;53.130;6.408;2022-08-06T16:16:33;27.90;41.30
33931;DHT22;20215;53.130;6.408;2022-08-06T16:18:59;27.90;41.30
33931;DHT22;20215;53.130;6.408;2022-08-06T16:21:26;27.90;41.40
33931;DHT22;20215;53.130;6.408;2022-08-06T16:23:52;27.70;41.30
33931;DHT22;20215;53.130;6.408;2022-08-06T16:26:20;27.70;41.50
33931;DHT22;20215;53.130;6.408;2022-08-06T16:28:47;27.70;41.40
33931;DHT22;20215;53.130;6.408;2022-08-06T16:31:12;27.70;41.40
33931;DHT22;20215;53.130;6.408;2022-08-06T16:33:38;27.70;41.20
33931;DHT22;20215;53.130;6.408;2022-08-06T16:36:04;27.80;41.30
33931;DHT22;20215;53.130;6.408;2022-08-06T16:38:30;27.80;41.50
33931;DHT22;20215;53.130;6.408;2022-08-06T16:40:55;27.80;40.80
33931;DHT22;20215;53.130;6.408;2022-08-06T16:43:21;27.80;40.10
33931;DHT22;20215;53.130;6.408;2022-08-06T16:45:54;27.70;39.90
33931;DHT22;20215;53.130;6.408;2022-08-06T16:48:20;27.70;40.10